Time;durP1;ratioP1;P1;durP2;ratioP2;P2;SDS_P1;SDS_P2;PMS_P1;PMS_P2;Temp;Humidity;BMP_temperature;BMP_pressure;BME280_temperature;BME280_humidity;BME280_pressure;Samples;Min_cycle;Max_cycle;Signal;HPM_P1;HPM_P2
2021/10/13 00:01:25;;;;;;;36.83;22.22;;;;;;;8.76;77.36;144411.22;1834768;77;22159;-66
2021/10/13 00:04:06;;;;;;;32.70;20.92;;;;;;;8.74;77.58;144404.97;1834161;77;22595;-61
2021/10/13 00:06:43;;;;;;;38.85;21.65;;;;;;;8.70;77.76;144396.17;1834818;77;22159;-63
2021/10/13 00:09:18;;;;;;;35.63;22.02;;;;;;;8.69;77.89;144393.69;1819451;77;28083;-65
2021/10/13 00:11:53;;;;;;;38.58;21.85;;;;;;;8.74;78.04;144406.20;1834974;77;22555;-66
2021/10/13 00:14:29;;;;;;;35.88;22.85;;;;;;;8.77;78.10;144412.47;1832464;78;28351;-65
2021/10/13 00:17:28;;;;;;;34.35;21.75;;;;;;;8.83;78.07;144427.53;1853480;77;22600;-65
2021/10/13 00:20:10;;;;;;;30.92;21.07;;;;;;;8.82;78.12;144426.23;1834134;77;22210;-67
2021/10/13 00:23:10;;;;;;;34.90;21.37;;;;;;;8.80;78.33;144419.97;1853486;77;23680;-64
2021/10/13 00:25:45;;;;;;;32.83;19.98;;;;;;;8.73;78.66;144403.72;1853514;77;22574;-69
2021/10/13 00:28:26;;;;;;;34.43;20.12;;;;;;;8.68;78.97;144392.44;1834160;77;22174;-68
2021/10/13 00:31:01;;;;;;;33.85;20.70;;;;;;;8.69;79.20;144393.69;1834972;77;22133;-62
2021/10/13 00:33:55;;;;;;;32.05;20.77;;;;;;;8.63;79.49;144378.67;1834920;77;22136;-65
2021/10/13 00:36:29;;;;;;;37.50;20.48;;;;;;;8.59;79.68;144368.64;1834980;77;22133;-61
2021/10/13 00:39:04;;;;;;;37.67;21.80;;;;;;;8.56;79.86;144362.38;1834997;77;22125;-65
2021/10/13 00:41:39;;;;;;;33.45;21.23;;;;;;;8.55;79.99;144358.59;1834948;77;22602;-65
2021/10/13 00:44:14;;;;;;;34.80;20.97;;;;;;;8.55;80.12;144358.59;1835022;77;22132;-65
2021/10/13 00:47:08;;;;;;;31.23;21.02;;;;;;;8.53;80.14;144354.88;1834930;77;22140;-66
2021/10/13 00:49:43;;;;;;;31.33;21.25;;;;;;;8.50;80.24;144346.08;1835092;77;22145;-66
2021/10/13 00:52:19;;;;;;;32.95;22.82;;;;;;;8.50;80.47;144347.38;1819470;77;28010;-67
2021/10/13 00:54:54;;;;;;;33.95;21.37;;;;;;;8.55;80.40;144359.89;1819396;77;27985;-61
2021/10/13 00:57:35;;;;;;;33.85;21.42;;;;;;;8.64;80.27;144382.41;1853458;77;22188;-62
2021/10/13 01:00:28;;;;;;;29.72;19.87;;;;;;;8.65;80.18;144383.64;1834891;77;22554;-59
2021/10/13 01:03:21;;;;;;;34.33;21.97;;;;;;;8.62;80.21;144376.14;1834977;77;22128;-63
2021/10/13 01:06:15;;;;;;;31.73;22.22;;;;;;;8.58;80.20;144366.16;1853512;77;22159;-63
2021/10/13 01:09:17;;;;;;;35.38;22.00;;;;;;;8.55;80.21;144359.89;1835008;77;22163;-64
2021/10/13 01:12:22;;;;;;;32.25;21.30;;;;;;;8.45;80.35;144336.09;1853473;77;22131;-65
2021/10/13 01:15:38;;;;;;;37.88;22.37;;;;;;;8.42;80.53;144327.30;1853411;77;22205;-62
2021/10/13 01:18:34;;;;;;;32.25;20.20;;;;;;;8.36;80.69;144313.48;1853585;77;22197;-59
2021/10/13 01:22:15;;;;;;;32.55;21.73;;;;;;;8.31;81.07;144300.97;1853401;77;22139;-64
2021/10/13 01:25:24;;;;;;;36.58;22.40;;;;;;;8.28;81.48;144292.22;1853577;77;22183;-63
2021/10/13 01:28:03;;;;;;;37.93;23.12;;;;;;;8.22;81.77;144278.47;1834955;77;22132;-63
2021/10/13 01:30:47;;;;;;;36.48;22.67;;;;;;;8.17;81.94;144265.95;1834897;77;22148;-65
2021/10/13 01:33:55;;;;;;;37.85;22.45;;;;;;;8.14;82.22;144259.69;1834972;77;22160;-62
2021/10/13 01:37:01;;;;;;;38.02;22.42;;;;;;;8.08;82.49;144243.41;1834629;77;22138;-65
2021/10/13 01:39:44;;;;;;;34.50;22.62;;;;;;;8.02;82.74;144230.87;1834906;77;22132;-60
2021/10/13 01:42:42;;;;;;;37.10;22.48;;;;;;;7.99;83.34;144223.38;1834777;77;22205;-64
2021/10/13 01:45:39;;;;;;;42.10;24.40;;;;;;;7.94;83.77;144209.63;1834764;77;22580;-64
2021/10/13 01:48:17;;;;;;;36.95;23.52;;;;;;;7.88;84.07;144195.83;1834979;77;22132;-61
2021/10/13 01:51:14;;;;;;;35.38;24.18;;;;;;;7.83;84.47;144183.31;1819371;77;38315;-62
2021/10/13 01:53:49;;;;;;;35.35;22.10;;;;;;;7.83;84.86;144183.31;1834992;77;22129;-62
2021/10/13 01:56:45;;;;;;;39.98;22.77;;;;;;;7.79;85.31;144173.33;1834890;77;22156;-64
2021/10/13 01:59:22;;;;;;;34.70;21.90;;;;;;;7.74;85.47;144160.81;1834985;77;22129;-64
2021/10/13 02:02:17;;;;;;;36.30;24.50;;;;;;;7.71;86.12;144153.27;1819439;77;28042;-61
2021/10/13 02:04:52;;;;;;;36.25;23.42;;;;;;;7.72;86.37;144155.80;1834971;77;22845;-63
2021/10/13 02:07:48;;;;;;;38.00;23.05;;;;;;;7.67;86.65;144143.28;1853477;77;22184;-60
2021/10/13 02:10:45;;;;;;;38.78;24.05;;;;;;;7.66;87.03;144140.75;1834908;77;22133;-62
2021/10/13 02:13:32;;;;;;;36.25;24.55;;;;;;;7.67;87.15;144143.28;1853504;77;22127;-66
2021/10/13 02:16:28;;;;;;;42.80;25.02;;;;;;;7.66;87.36;144140.75;1834137;77;22136;-64
2021/10/13 02:19:24;;;;;;;39.38;24.60;;;;;;;7.66;87.37;144142.05;1834958;77;22132;-59
2021/10/13 02:21:59;;;;;;;36.60;23.07;;;;;;;7.67;87.45;144143.28;1853551;77;22128;-61
2021/10/13 02:24:55;;;;;;;36.20;24.25;;;;;;;7.66;87.50;144142.05;1819158;77;28448;-68
2021/10/13 02:27:38;;;;;;;39.48;25.35;;;;;;;7.73;87.41;144158.28;1834900;77;22570;-65
2021/10/13 02:30:13;;;;;;;39.42;26.17;;;;;;;7.76;87.24;144165.78;1834979;77;22124;-65
2021/10/13 02:32:54;;;;;;;41.23;25.62;;;;;;;7.76;87.15;144165.78;1834131;77;22136;-60
2021/10/13 02:35:48;;;;;;;41.50;26.70;;;;;;;7.73;87.02;144159.53;1834913;77;22136;-60
2021/10/13 02:38:42;;;;;;;39.88;25.82;;;;;;;7.68;87.00;144145.77;1853700;77;22124;-63
2021/10/13 02:41:17;;;;;;;43.00;26.10;;;;;;;7.67;87.06;144143.28;1834983;77;22129;-61
2021/10/13 02:43:52;;;;;;;41.23;26.55;;;;;;;7.70;87.09;144150.78;1834947;77;22559;-68
2021/10/13 02:46:50;;;;;;;43.87;27.93;;;;;;;7.73;87.04;144158.28;1853496;77;22160;-61
2021/10/13 02:50:22;;;;;;;42.15;25.80;;;;;;;7.74;86.93;144160.81;1834274;77;22140;-60
2021/10/13 02:53:18;;;;;;;41.37;26.60;;;;;;;7.73;86.92;144158.28;1853529;77;22124;-68
2021/10/13 02:56:28;;;;;;;42.80;25.82;;;;;;;7.73;86.88;144158.28;1834910;77;22136;-66
2021/10/13 02:59:22;;;;;;;44.53;25.70;;;;;;;7.76;86.75;144165.78;1834967;77;22157;-63
2021/10/13 03:02:27;;;;;;;41.77;28.07;;;;;;;7.73;86.62;144158.28;1818653;77;27998;-63
2021/10/13 03:05:18;;;;;;;44.00;26.25;;;;;;;7.76;86.51;144165.78;1835005;77;22157;-59
2021/10/13 03:08:15;;;;;;;39.03;26.05;;;;;;;7.74;86.40;144160.81;1834864;77;22575;-65
2021/10/13 03:11:11;;;;;;;38.83;25.55;;;;;;;7.72;86.43;144155.80;1853485;77;22136;-68
2021/10/13 03:14:12;;;;;;;38.85;24.98;;;;;;;7.74;86.44;144162.06;1834100;77;22163;-66
2021/10/13 03:17:07;;;;;;;43.85;27.30;;;;;;;7.76;86.22;144165.78;1834928;77;22148;-64
2021/10/13 03:19:49;;;;;;;43.70;27.67;;;;;;;7.74;86.20;144160.81;1834156;77;22590;-64
2021/10/13 03:22:25;;;;;;;38.78;27.05;;;;;;;7.74;86.21;144160.81;1819343;77;28016;-58
2021/10/13 03:25:30;;;;;;;36.45;23.40;;;;;;;7.81;86.12;144178.30;1834769;77;22615;-65
2021/10/13 03:28:31;;;;;;;42.00;27.52;;;;;;;7.78;85.98;144170.80;1834203;77;22168;-64
2021/10/13 03:31:08;;;;;;;42.62;25.08;;;;;;;7.71;86.12;144153.27;1830962;77;22168;-67
2021/10/13 03:34:02;;;;;;;42.60;27.52;;;;;;;7.57;86.46;144119.50;1853486;77;22191;-64
2021/10/13 03:36:49;;;;;;;39.55;25.68;;;;;;;7.49;86.82;144100.75;1834195;77;22163;-61
2021/10/13 03:39:30;;;;;;;38.50;25.92;;;;;;;7.41;87.12;144080.73;1828380;77;22212;-63
2021/10/13 03:42:31;;;;;;;46.95;26.93;;;;;;;7.36;87.27;144069.47;1853408;77;22231;-63
2021/10/13 03:45:10;;;;;;;39.45;26.15;;;;;;;7.34;87.42;144063.22;1834926;77;22140;-59
2021/10/13 03:47:44;;;;;;;47.80;26.82;;;;;;;7.33;87.50;144061.97;1853506;77;22131;-60
2021/10/13 03:50:21;;;;;;;35.78;24.77;;;;;;;7.33;87.64;144061.97;1819339;77;28490;-60
2021/10/13 03:53:02;;;;;;;38.48;25.40;;;;;;;7.36;87.76;144069.47;1834117;77;22132;-63
2021/10/13 03:55:57;;;;;;;38.05;26.20;;;;;;;7.35;87.92;144065.69;1827549;77;22579;-61
2021/10/13 03:58:51;;;;;;;36.48;24.75;;;;;;;7.29;88.16;144050.70;1809915;77;22174;-62
2021/10/13 04:01:26;;;;;;;39.18;25.45;;;;;;;7.25;88.44;144040.69;1805649;77;22166;-57
2021/10/13 04:04:02;;;;;;;36.58;25.17;;;;;;;7.16;88.65;144020.67;1821103;77;23793;-61
2021/10/13 04:06:38;;;;;;;38.75;26.70;;;;;;;7.11;89.10;144008.17;1792654;77;28158;-59
2021/10/13 04:09:13;;;;;;;37.73;26.17;;;;;;;7.11;89.41;144008.17;1819161;77;28044;-61
2021/10/13 04:12:13;;;;;;;37.10;25.02;;;;;;;7.10;89.58;144005.69;1834012;77;22606;-59
2021/10/13 04:14:49;;;;;;;35.00;24.57;;;;;;;7.07;89.84;143996.91;1819283;77;28057;-64
2021/10/13 04:17:24;;;;;;;36.40;24.75;;;;;;;7.07;90.08;143998.19;1824034;77;22163;-62
2021/10/13 04:20:18;;;;;;;43.95;26.87;;;;;;;6.95;90.33;143968.17;1845494;77;22171;-61
2021/10/13 04:23:00;;;;;;;37.93;25.08;;;;;;;6.86;90.68;143946.88;1813361;77;22212;-61
2021/10/13 04:25:54;;;;;;;43.00;25.55;;;;;;;6.81;91.09;143933.14;1821499;77;22214;-61
2021/10/13 04:28:29;;;;;;;39.70;25.17;;;;;;;6.74;91.68;143916.88;1827383;77;22127;-61
2021/10/13 04:31:24;;;;;;;50.08;28.42;;;;;;;6.70;92.07;143908.12;1825670;77;22590;-58
2021/10/13 04:33:59;;;;;;;42.00;26.30;;;;;;;6.68;92.33;143903.13;1820617;77;22128;-62
2021/10/13 04:36:54;;;;;;;38.80;26.30;;;;;;;6.67;92.56;143899.41;1834693;77;22160;-64
2021/10/13 04:39:29;;;;;;;40.88;26.75;;;;;;;6.68;92.73;143903.13;1853461;77;22136;-61
2021/10/13 04:42:04;;;;;;;40.90;25.65;;;;;;;6.64;92.90;143891.86;1853487;77;22140;-61
2021/10/13 04:44:40;;;;;;;41.98;26.42;;;;;;;6.64;93.06;143893.16;1834841;77;22157;-64
2021/10/13 04:47:33;;;;;;;39.78;25.30;;;;;;;6.67;93.18;143900.64;1843301;77;22156;-59
2021/10/13 04:50:09;;;;;;;41.00;25.88;;;;;;;6.67;93.27;143899.41;1834968;77;22153;-58
2021/10/13 04:53:04;;;;;;;40.50;26.75;;;;;;;6.68;93.36;143901.88;1853439;77;22131;-60
2021/10/13 04:55:39;;;;;;;41.85;27.58;;;;;;;6.66;93.38;143896.88;1819370;77;28003;-60
2021/10/13 04:58:14;;;;;;;38.92;25.88;;;;;;;6.70;93.41;143908.12;1812297;77;22191;-62
2021/10/13 05:00:49;;;;;;;39.38;26.35;;;;;;;6.69;93.42;143904.38;1824429;77;22843;-61
2021/10/13 05:03:24;;;;;;;40.58;27.55;;;;;;;6.70;93.47;143906.91;1801576;77;28129;-63
2021/10/13 05:06:25;;;;;;;41.40;25.92;;;;;;;6.73;93.35;143915.63;1828243;77;22222;-64
2021/10/13 05:09:00;;;;;;;40.12;25.82;;;;;;;6.74;93.36;143918.16;1800501;79;22148;-60
2021/10/13 05:11:35;;;;;;;45.75;26.55;;;;;;;6.77;93.30;143924.41;1834928;77;22218;-63
2021/10/13 05:14:11;;;;;;;40.65;26.60;;;;;;;6.84;93.24;143940.63;1853459;77;22155;-61
2021/10/13 05:17:07;;;;;;;42.53;27.37;;;;;;;6.91;93.08;143958.16;1834497;77;22179;-64
2021/10/13 05:19:47;;;;;;;41.65;26.27;;;;;;;6.98;92.89;143975.66;1833988;77;22194;-65
2021/10/13 05:22:22;;;;;;;38.38;25.92;;;;;;;7.03;92.56;143988.17;1834841;77;22136;-64
2021/10/13 05:25:16;;;;;;;41.25;25.20;;;;;;;7.08;92.40;144000.67;1834545;77;22235;-60
2021/10/13 05:27:51;;;;;;;41.40;26.17;;;;;;;7.14;92.16;144015.66;1834868;77;22571;-62
2021/10/13 05:30:32;;;;;;;38.88;25.82;;;;;;;7.18;91.96;144025.69;1833840;77;22235;-64
2021/10/13 05:33:07;;;;;;;44.45;26.75;;;;;;;7.24;91.80;144038.19;1834826;77;22555;-59
2021/10/13 05:35:47;;;;;;;41.90;26.57;;;;;;;7.31;91.50;144055.72;1834062;77;22272;-63
2021/10/13 05:38:28;;;;;;;42.88;28.35;;;;;;;7.35;91.30;144066.98;1825924;77;22626;-67
2021/10/13 05:41:03;;;;;;;43.42;28.85;;;;;;;7.42;91.07;144083.22;1830717;77;22631;-60
2021/10/13 05:43:38;;;;;;;45.38;28.47;;;;;;;7.52;90.93;144107.00;1865788;77;22562;-64
2021/10/13 05:46:32;;;;;;;50.38;31.45;;;;;;;7.58;90.33;144123.28;1814186;77;22168;-62
2021/10/13 05:49:07;;;;;;;46.58;29.70;;;;;;;7.55;90.22;144115.73;1853481;77;22164;-57
2021/10/13 05:51:42;;;;;;;56.23;31.40;;;;;;;7.57;90.22;144120.75;1834870;77;22159;-57
2021/10/13 05:54:17;;;;;;;46.60;31.52;;;;;;;7.64;90.09;144135.78;1853384;77;22180;-56
